Terminal Aerodrome Forecast
Issued by NWS

Home | Current Version | Previous Version | Text Only | Print | Product List | Glossary On
Versions: 1 2 3 4 5 6 7 8 9 10 11 12 13 14 15 16 17 18 19 20 21
000
FTUS46 KPDT 190900 AAA
TAFBDN
TAF AMD
KBDN 190915Z 1909/2006 20010KT P6SM VCSH SCT010 BKN050 OVC070
     FM191200 21005KT P6SM VCSH BKN040 OVC060
     FM192100 24009KT P6SM OVC050
     FM200300 17011KT P6SM OVC025=

USA.gov is the U.S. government's official web portal to all federal, state and local government web resources and services.